Aviation Digital Data Service (ADDS)

Output produced by METARs form (1247 UTC 19 October 2017)
found at http://www.aviationweather.gov/adds/metars/
 
METAR text: KAGC 191153Z 17009KT 10SM CLR 08/03 A3022 RMK AO2 SLP237 T00830033 10111 20072 51005
Conditions at: KAGC (PITTSBURGH/ALLEG, PA, US) observed 1153 UTC 19 October 2017
Temperature: 8.3°C (47°F)
Dewpoint: 3.3°C (38°F) [RH = 71%]
Pressure (altimeter): 30.22 inches Hg (1023.5 mb)
[Sea-level pressure: 1023.7 mb]
Winds: from the S (170 degrees) at 10 MPH (9 knots; 4.7 m/s)
Visibility: 10 or more miles (16+ km)
Ceiling: at least 12,000 feet AGL
Clouds: sky clear below 12,000 feet AGL
Weather: no significant weather observed at this time

METAR text: KAGC 191053Z 18009KT 10SM CLR 08/03 A3022 RMK AO2 SLP236 T00830028
Conditions at: KAGC (PITTSBURGH/ALLEG, PA, US) observed 1053 UTC 19 October 2017
Temperature: 8.3°C (47°F)
Dewpoint: 2.8°C (37°F) [RH = 68%]
Pressure (altimeter): 30.22 inches Hg (1023.5 mb)
[Sea-level pressure: 1023.6 mb]
Winds: from the S (180 degrees) at 10 MPH (9 knots; 4.7 m/s)
Visibility: 10 or more miles (16+ km)
Ceiling: at least 12,000 feet AGL
Clouds: sky clear below 12,000 feet AGL
Weather: no significant weather observed at this time

METAR text: KAGC 190953Z 18007KT 10SM CLR 09/02 A3021 RMK AO2 SLP234 T00890022
Conditions at: KAGC (PITTSBURGH/ALLEG, PA, US) observed 0953 UTC 19 October 2017
Temperature: 8.9°C (48°F)
Dewpoint: 2.2°C (36°F) [RH = 63%]
Pressure (altimeter): 30.21 inches Hg (1023.1 mb)
[Sea-level pressure: 1023.4 mb]
Winds: from the S (180 degrees) at 8 MPH (7 knots; 3.6 m/s)
Visibility: 10 or more miles (16+ km)
Ceiling: at least 12,000 feet AGL
Clouds: sky clear below 12,000 feet AGL
Weather: no significant weather observed at this time

METAR text: KAGC 190853Z 17008KT 9SM CLR 08/04 A3020 RMK AO2 SLP231 T00780044 58001
Conditions at: KAGC (PITTSBURGH/ALLEG, PA, US) observed 0853 UTC 19 October 2017
Temperature: 7.8°C (46°F)
Dewpoint: 4.4°C (40°F) [RH = 79%]
Pressure (altimeter): 30.20 inches Hg (1022.8 mb)
[Sea-level pressure: 1023.1 mb]
Winds: from the S (170 degrees) at 9 MPH (8 knots; 4.2 m/s)
Visibility: 9 miles (14 km)
Ceiling: at least 12,000 feet AGL
Clouds: sky clear below 12,000 feet AGL
Weather: no significant weather observed at this time

METAR text: KAGC 190753Z 18007KT 10SM CLR 09/03 A3021 RMK AO2 SLP232 T00940028
Conditions at: KAGC (PITTSBURGH/ALLEG, PA, US) observed 0753 UTC 19 October 2017
Temperature: 9.4°C (49°F)
Dewpoint: 2.8°C (37°F) [RH = 63%]
Pressure (altimeter): 30.21 inches Hg (1023.1 mb)
[Sea-level pressure: 1023.2 mb]
Winds: from the S (180 degrees) at 8 MPH (7 knots; 3.6 m/s)
Visibility: 10 or more miles (16+ km)
Ceiling: at least 12,000 feet AGL
Clouds: sky clear below 12,000 feet AGL
Weather: no significant weather observed at this time

METAR text: KAGC 190653Z 17007KT 10SM CLR 09/03 A3021 RMK AO2 SLP232 T00940033
Conditions at: KAGC (PITTSBURGH/ALLEG, PA, US) observed 0653 UTC 19 October 2017
Temperature: 9.4°C (49°F)
Dewpoint: 3.3°C (38°F) [RH = 66%]
Pressure (altimeter): 30.21 inches Hg (1023.1 mb)
[Sea-level pressure: 1023.2 mb]
Winds: from the S (170 degrees) at 8 MPH (7 knots; 3.6 m/s)
Visibility: 10 or more miles (16+ km)
Ceiling: at least 12,000 feet AGL
Clouds: sky clear below 12,000 feet AGL
Weather: no significant weather observed at this time

METAR text: KAGC 190553Z 20006KT 10SM CLR 11/03 A3021 RMK AO2 SLP232 T01110028 10183 20106 55004
Conditions at: KAGC (PITTSBURGH/ALLEG, PA, US) observed 0553 UTC 19 October 2017
Temperature: 11.1°C (52°F)
Dewpoint: 2.8°C (37°F) [RH = 57%]
Pressure (altimeter): 30.21 inches Hg (1023.1 mb)
[Sea-level pressure: 1023.2 mb]
Winds: from the SSW (200 degrees) at 7 MPH (6 knots; 3.1 m/s)
Visibility: 10 or more miles (16+ km)
Ceiling: at least 12,000 feet AGL
Clouds: sky clear below 12,000 feet AGL
Weather: no significant weather observed at this time

METAR text: KAGC 190453Z 18007KT 10SM CLR 12/03 A3020 RMK AO2 SLP232 T01170033 402110044
Conditions at: KAGC (PITTSBURGH/ALLEG, PA, US) observed 0453 UTC 19 October 2017
Temperature: 11.7°C (53°F)
Dewpoint: 3.3°C (38°F) [RH = 56%]
Pressure (altimeter): 30.20 inches Hg (1022.8 mb)
[Sea-level pressure: 1023.2 mb]
Winds: from the S (180 degrees) at 8 MPH (7 knots; 3.6 m/s)
Visibility: 10 or more miles (16+ km)
Ceiling: at least 12,000 feet AGL
Clouds: sky clear below 12,000 feet AGL
Weather: no significant weather observed at this time

METAR text: KAGC 190353Z 16007KT 10SM CLR 11/05 A3021 RMK AO2 SLP234 T01110050
Conditions at: KAGC (PITTSBURGH/ALLEG, PA, US) observed 0353 UTC 19 October 2017
Temperature: 11.1°C (52°F)
Dewpoint: 5.0°C (41°F) [RH = 66%]
Pressure (altimeter): 30.21 inches Hg (1023.1 mb)
[Sea-level pressure: 1023.4 mb]
Winds: from the SSE (160 degrees) at 8 MPH (7 knots; 3.6 m/s)
Visibility: 10 or more miles (16+ km)
Ceiling: at least 12,000 feet AGL
Clouds: sky clear below 12,000 feet AGL
Weather: no significant weather observed at this time

METAR text: KAGC 190253Z 16006KT 10SM CLR 13/06 A3022 RMK AO2 SLP237 T01280056 58001
Conditions at: KAGC (PITTSBURGH/ALLEG, PA, US) observed 0253 UTC 19 October 2017
Temperature: 12.8°C (55°F)
Dewpoint: 5.6°C (42°F) [RH = 62%]
Pressure (altimeter): 30.22 inches Hg (1023.5 mb)
[Sea-level pressure: 1023.7 mb]
Winds: from the SSE (160 degrees) at 7 MPH (6 knots; 3.1 m/s)
Visibility: 10 or more miles (16+ km)
Ceiling: at least 12,000 feet AGL
Clouds: sky clear below 12,000 feet AGL
Weather: no significant weather observed at this time

METAR text: KAGC 190153Z 16006KT 10SM CLR 13/05 A3023 RMK AO2 SLP241 T01330050
Conditions at: KAGC (PITTSBURGH/ALLEG, PA, US) observed 0153 UTC 19 October 2017
Temperature: 13.3°C (56°F)
Dewpoint: 5.0°C (41°F) [RH = 57%]
Pressure (altimeter): 30.23 inches Hg (1023.8 mb)
[Sea-level pressure: 1024.1 mb]
Winds: from the SSE (160 degrees) at 7 MPH (6 knots; 3.1 m/s)
Visibility: 10 or more miles (16+ km)
Ceiling: at least 12,000 feet AGL
Clouds: sky clear below 12,000 feet AGL
Weather: no significant weather observed at this time

METAR text: KAGC 190053Z 19004KT 10SM CLR 17/03 A3023 RMK AO2 SLP242 T01720028
Conditions at: KAGC (PITTSBURGH/ALLEG, PA, US) observed 0053 UTC 19 October 2017
Temperature: 17.2°C (63°F)
Dewpoint: 2.8°C (37°F) [RH = 38%]
Pressure (altimeter): 30.23 inches Hg (1023.8 mb)
[Sea-level pressure: 1024.2 mb]
Winds: from the S (190 degrees) at 5 MPH (4 knots; 2.1 m/s)
Visibility: 10 or more miles (16+ km)
Ceiling: at least 12,000 feet AGL
Clouds: sky clear below 12,000 feet AGL
Weather: no significant weather observed at this time

METAR text: KAGC 182353Z 21003KT 10SM CLR 18/02 A3022 RMK AO2 SLP241 T01830022 10211 20183 56001
Conditions at: KAGC (PITTSBURGH/ALLEG, PA, US) observed 2353 UTC 18 October 2017
Temperature: 18.3°C (65°F)
Dewpoint: 2.2°C (36°F) [RH = 34%]
Pressure (altimeter): 30.22 inches Hg (1023.5 mb)
[Sea-level pressure: 1024.1 mb]
Winds: from the SSW (210 degrees) at 3 MPH (3 knots; 1.6 m/s)
Visibility: 10 or more miles (16+ km)
Ceiling: at least 12,000 feet AGL
Clouds: sky clear below 12,000 feet AGL
Weather: no significant weather observed at this time

METAR text: KAGC 182253Z 21005KT 10SM CLR 19/03 A3023 RMK AO2 SLP241 T01890028
Conditions at: KAGC (PITTSBURGH/ALLEG, PA, US) observed 2253 UTC 18 October 2017
Temperature: 18.9°C (66°F)
Dewpoint: 2.8°C (37°F) [RH = 34%]
Pressure (altimeter): 30.23 inches Hg (1023.8 mb)
[Sea-level pressure: 1024.1 mb]
Winds: from the SSW (210 degrees) at 6 MPH (5 knots; 2.6 m/s)
Visibility: 10 or more miles (16+ km)
Ceiling: at least 12,000 feet AGL
Clouds: sky clear below 12,000 feet AGL
Weather: no significant weather observed at this time

METAR text: KAGC 182153Z 20005KT 10SM CLR 20/03 A3022 RMK AO2 SLP238 T02000033
Conditions at: KAGC (PITTSBURGH/ALLEG, PA, US) observed 2153 UTC 18 October 2017
Temperature: 20.0°C (68°F)
Dewpoint: 3.3°C (38°F) [RH = 33%]
Pressure (altimeter): 30.22 inches Hg (1023.5 mb)
[Sea-level pressure: 1023.8 mb]
Winds: from the SSW (200 degrees) at 6 MPH (5 knots; 2.6 m/s)
Visibility: 10 or more miles (16+ km)
Ceiling: at least 12,000 feet AGL
Clouds: sky clear below 12,000 feet AGL
Weather: no significant weather observed at this time

METAR text: KAGC 182053Z 20010KT 10SM CLR 21/02 A3023 RMK AO2 SLP240 T02060022 56023
Conditions at: KAGC (PITTSBURGH/ALLEG, PA, US) observed 2053 UTC 18 October 2017
Temperature: 20.6°C (69°F)
Dewpoint: 2.2°C (36°F) [RH = 30%]
Pressure (altimeter): 30.23 inches Hg (1023.8 mb)
[Sea-level pressure: 1024.0 mb]
Winds: from the SSW (200 degrees) at 12 MPH (10 knots; 5.2 m/s)
Visibility: 10 or more miles (16+ km)
Ceiling: at least 12,000 feet AGL
Clouds: sky clear below 12,000 feet AGL
Weather: no significant weather observed at this time

METAR text: KAGC 181953Z 17006KT 10SM CLR 21/02 A3024 RMK AO2 SLP246 T02060022
Conditions at: KAGC (PITTSBURGH/ALLEG, PA, US) observed 1953 UTC 18 October 2017
Temperature: 20.6°C (69°F)
Dewpoint: 2.2°C (36°F) [RH = 30%]
Pressure (altimeter): 30.24 inches Hg (1024.1 mb)
[Sea-level pressure: 1024.6 mb]
Winds: from the S (170 degrees) at 7 MPH (6 knots; 3.1 m/s)
Visibility: 10 or more miles (16+ km)
Ceiling: at least 12,000 feet AGL
Clouds: sky clear below 12,000 feet AGL
Weather: no significant weather observed at this time

METAR text: KAGC 181853Z 16005KT 10SM CLR 20/04 A3027 RMK AO2 SLP253 T02000039
Conditions at: KAGC (PITTSBURGH/ALLEG, PA, US) observed 1853 UTC 18 October 2017
Temperature: 20.0°C (68°F)
Dewpoint: 3.9°C (39°F) [RH = 35%]
Pressure (altimeter): 30.27 inches Hg (1025.1 mb)
[Sea-level pressure: 1025.3 mb]
Winds: from the SSE (160 degrees) at 6 MPH (5 knots; 2.6 m/s)
Visibility: 10 or more miles (16+ km)
Ceiling: at least 12,000 feet AGL
Clouds: sky clear below 12,000 feet AGL
Weather: no significant weather observed at this time

METAR text: KAGC 181753Z 18004KT 10SM CLR 19/04 A3030 RMK AO2 SLP264 T01890044 10194 20056 58019
Conditions at: KAGC (PITTSBURGH/ALLEG, PA, US) observed 1753 UTC 18 October 2017
Temperature: 18.9°C (66°F)
Dewpoint: 4.4°C (40°F) [RH = 38%]
Pressure (altimeter): 30.30 inches Hg (1026.2 mb)
[Sea-level pressure: 1026.4 mb]
Winds: from the S (180 degrees) at 5 MPH (4 knots; 2.1 m/s)
Visibility: 10 or more miles (16+ km)
Ceiling: at least 12,000 feet AGL
Clouds: sky clear below 12,000 feet AGL
Weather: no significant weather observed at this time

METAR text: KAGC 181653Z VRB03KT 10SM CLR 17/04 A3033 RMK AO2 SLP276 T01720044
Conditions at: KAGC (PITTSBURGH/ALLEG, PA, US) observed 1653 UTC 18 October 2017
Temperature: 17.2°C (63°F)
Dewpoint: 4.4°C (40°F) [RH = 43%]
Pressure (altimeter): 30.33 inches Hg (1027.2 mb)
[Sea-level pressure: 1027.6 mb]
Winds: variable direction winds at 3 MPH (3 knots; 1.6 m/s)
Visibility: 10 or more miles (16+ km)
Ceiling: at least 12,000 feet AGL
Clouds: sky clear below 12,000 feet AGL
Weather: no significant weather observed at this time

METAR text: KAGC 181553Z 00000KT 10SM CLR 16/04 A3035 RMK AO2 SLP283 T01560039
Conditions at: KAGC (PITTSBURGH/ALLEG, PA, US) observed 1553 UTC 18 October 2017
Temperature: 15.6°C (60°F)
Dewpoint: 3.9°C (39°F) [RH = 46%]
Pressure (altimeter): 30.35 inches Hg (1027.9 mb)
[Sea-level pressure: 1028.3 mb]
Winds: calm
Visibility: 10 or more miles (16+ km)
Ceiling: at least 12,000 feet AGL
Clouds: sky clear below 12,000 feet AGL
Weather: no significant weather observed at this time

METAR text: KAGC 181453Z 15004KT 10SM CLR 14/04 A3035 RMK AO2 SLP286 T01390044 50007
Conditions at: KAGC (PITTSBURGH/ALLEG, PA, US) observed 1453 UTC 18 October 2017
Temperature: 13.9°C (57°F)
Dewpoint: 4.4°C (40°F) [RH = 53%]
Pressure (altimeter): 30.35 inches Hg (1027.9 mb)
[Sea-level pressure: 1028.6 mb]
Winds: from the SSE (150 degrees) at 5 MPH (4 knots; 2.1 m/s)
Visibility: 10 or more miles (16+ km)
Ceiling: at least 12,000 feet AGL
Clouds: sky clear below 12,000 feet AGL
Weather: no significant weather observed at this time

METAR text: KAGC 181353Z 17003KT 10SM CLR 11/04 A3036 RMK AO2 SLP289 T01060044
Conditions at: KAGC (PITTSBURGH/ALLEG, PA, US) observed 1353 UTC 18 October 2017
Temperature: 10.6°C (51°F)
Dewpoint: 4.4°C (40°F) [RH = 65%]
Pressure (altimeter): 30.36 inches Hg (1028.2 mb)
[Sea-level pressure: 1028.9 mb]
Winds: from the S (170 degrees) at 3 MPH (3 knots; 1.6 m/s)
Visibility: 10 or more miles (16+ km)
Ceiling: at least 12,000 feet AGL
Clouds: sky clear below 12,000 feet AGL
Weather: no significant weather observed at this time

METAR text: KAGC 181253Z 16003KT 7SM CLR 07/04 A3036 RMK AO2 SLP289 T00720039
Conditions at: KAGC (PITTSBURGH/ALLEG, PA, US) observed 1253 UTC 18 October 2017
Temperature: 7.2°C (45°F)
Dewpoint: 3.9°C (39°F) [RH = 80%]
Pressure (altimeter): 30.36 inches Hg (1028.2 mb)
[Sea-level pressure: 1028.9 mb]
Winds: from the SSE (160 degrees) at 3 MPH (3 knots; 1.6 m/s)
Visibility: 7 miles (11 km)
Ceiling: at least 12,000 feet AGL
Clouds: sky clear below 12,000 feet AGL
Weather: no significant weather observed at this time